sensor_id;sensor_type;location;lat;lon;timestamp;temperature;humidity
429;DHT22;201;48.758;9.290;2024-02-28T00:02:07;7.00;1.00
429;DHT22;201;48.758;9.290;2024-02-28T00:04:33;7.00;1.00
429;DHT22;201;48.758;9.290;2024-02-28T00:06:58;7.00;1.00
429;DHT22;201;48.758;9.290;2024-02-28T00:09:24;7.00;1.00
429;DHT22;201;48.758;9.290;2024-02-28T00:11:50;7.00;1.00
429;DHT22;201;48.758;9.290;2024-02-28T00:14:15;7.00;1.00
429;DHT22;201;48.758;9.290;2024-02-28T00:16:42;7.00;1.00
429;DHT22;201;48.758;9.290;2024-02-28T00:19:08;7.00;1.00
429;DHT22;201;48.758;9.290;2024-02-28T00:21:34;7.00;1.00
429;DHT22;201;48.758;9.290;2024-02-28T00:23:59;7.00;1.00
429;DHT22;201;48.758;9.290;2024-02-28T00:26:25;7.00;1.00
429;DHT22;201;48.758;9.290;2024-02-28T00:28:50;7.00;1.00
429;DHT22;201;48.758;9.290;2024-02-28T00:31:16;7.00;1.00
429;DHT22;201;48.758;9.290;2024-02-28T00:33:41;7.00;1.00
429;DHT22;201;48.758;9.290;2024-02-28T00:36:07;7.00;1.00
429;DHT22;201;48.758;9.290;2024-02-28T00:38:32;7.00;1.00
429;DHT22;201;48.758;9.290;2024-02-28T00:40:58;7.00;1.00
429;DHT22;201;48.758;9.290;2024-02-28T00:43:23;7.00;1.00
429;DHT22;201;48.758;9.290;2024-02-28T00:45:49;6.90;1.00
429;DHT22;201;48.758;9.290;2024-02-28T00:48:14;7.00;1.00
429;DHT22;201;48.758;9.290;2024-02-28T00:50:40;7.00;1.00
429;DHT22;201;48.758;9.290;2024-02-28T00:53:05;7.00;1.00
429;DHT22;201;48.758;9.290;2024-02-28T00:55:31;7.00;1.00
429;DHT22;201;48.758;9.290;2024-02-28T00:57:56;7.00;1.00
429;DHT22;201;48.758;9.290;2024-02-28T01:00:22;7.00;1.00
429;DHT22;201;48.758;9.290;2024-02-28T01:02:47;7.00;1.00
429;DHT22;201;48.758;9.290;2024-02-28T01:05:13;7.00;1.00
429;DHT22;201;48.758;9.290;2024-02-28T01:07:38;7.00;1.00
429;DHT22;201;48.758;9.290;2024-02-28T01:10:04;7.00;1.00
429;DHT22;201;48.758;9.290;2024-02-28T01:12:30;7.00;1.00
429;DHT22;201;48.758;9.290;2024-02-28T01:14:55;7.00;1.00
429;DHT22;201;48.758;9.290;2024-02-28T01:17:21;6.90;1.00
429;DHT22;201;48.758;9.290;2024-02-28T01:19:47;6.90;1.10
429;DHT22;201;48.758;9.290;2024-02-28T01:22:12;6.90;1.30
429;DHT22;201;48.758;9.290;2024-02-28T01:24:38;6.90;1.30
429;DHT22;201;48.758;9.290;2024-02-28T01:27:03;6.90;1.10
429;DHT22;201;48.758;9.290;2024-02-28T01:29:29;6.90;1.30
429;DHT22;201;48.758;9.290;2024-02-28T01:31:55;6.90;1.30
429;DHT22;201;48.758;9.290;2024-02-28T01:34:21;7.00;1.30
429;DHT22;201;48.758;9.290;2024-02-28T01:36:46;7.00;1.20
429;DHT22;201;48.758;9.290;2024-02-28T01:39:12;7.10;1.20
429;DHT22;201;48.758;9.290;2024-02-28T01:41:37;7.10;1.10
429;DHT22;201;48.758;9.290;2024-02-28T01:44:03;7.10;1.00
429;DHT22;201;48.758;9.290;2024-02-28T01:46:29;7.10;1.00
429;DHT22;201;48.758;9.290;2024-02-28T01:48:55;7.10;1.10
429;DHT22;201;48.758;9.290;2024-02-28T01:51:22;7.20;1.00
429;DHT22;201;48.758;9.290;2024-02-28T01:53:50;7.20;1.00
429;DHT22;201;48.758;9.290;2024-02-28T01:56:16;7.30;1.00
429;DHT22;201;48.758;9.290;2024-02-28T01:58:45;7.30;1.20
429;DHT22;201;48.758;9.290;2024-02-28T02:01:13;7.30;1.00
429;DHT22;201;48.758;9.290;2024-02-28T02:03:39;7.20;1.00
429;DHT22;201;48.758;9.290;2024-02-28T02:06:05;7.00;1.00
429;DHT22;201;48.758;9.290;2024-02-28T02:08:31;7.00;1.00
429;DHT22;201;48.758;9.290;2024-02-28T02:10:57;7.00;1.10
429;DHT22;201;48.758;9.290;2024-02-28T02:13:23;7.00;1.00
429;DHT22;201;48.758;9.290;2024-02-28T02:15:48;6.90;1.00
429;DHT22;201;48.758;9.290;2024-02-28T02:18:14;6.90;1.10
429;DHT22;201;48.758;9.290;2024-02-28T02:20:43;6.90;1.00
429;DHT22;201;48.758;9.290;2024-02-28T02:23:09;6.80;1.00
429;DHT22;201;48.758;9.290;2024-02-28T02:25:42;6.80;1.00
429;DHT22;201;48.758;9.290;2024-02-28T02:28:08;6.80;1.00
429;DHT22;201;48.758;9.290;2024-02-28T02:30:33;6.80;1.00
429;DHT22;201;48.758;9.290;2024-02-28T02:32:59;6.80;1.00
429;DHT22;201;48.758;9.290;2024-02-28T02:35:24;6.80;1.00
429;DHT22;201;48.758;9.290;2024-02-28T02:37:50;6.80;1.10
429;DHT22;201;48.758;9.290;2024-02-28T02:40:15;6.70;1.00
429;DHT22;201;48.758;9.290;2024-02-28T02:42:41;6.70;1.00
429;DHT22;201;48.758;9.290;2024-02-28T02:45:06;6.70;1.00
429;DHT22;201;48.758;9.290;2024-02-28T02:47:32;6.70;1.00
429;DHT22;201;48.758;9.290;2024-02-28T02:49:57;6.70;1.00
429;DHT22;201;48.758;9.290;2024-02-28T02:52:23;6.70;1.00
429;DHT22;201;48.758;9.290;2024-02-28T02:54:48;6.70;1.00
429;DHT22;201;48.758;9.290;2024-02-28T02:57:14;6.70;1.00
429;DHT22;201;48.758;9.290;2024-02-28T02:59:39;6.70;1.00
429;DHT22;201;48.758;9.290;2024-02-28T03:02:05;6.70;1.00
429;DHT22;201;48.758;9.290;2024-02-28T03:04:31;6.70;1.00
429;DHT22;201;48.758;9.290;2024-02-28T03:06:56;6.70;1.00
429;DHT22;201;48.758;9.290;2024-02-28T03:09:22;6.60;1.00
429;DHT22;201;48.758;9.290;2024-02-28T03:11:47;6.70;1.00
429;DHT22;201;48.758;9.290;2024-02-28T03:14:13;6.70;1.00
429;DHT22;201;48.758;9.290;2024-02-28T03:16:42;6.60;1.00
429;DHT22;201;48.758;9.290;2024-02-28T03:19:08;6.70;1.00
429;DHT22;201;48.758;9.290;2024-02-28T03:21:35;6.70;1.00
429;DHT22;201;48.758;9.290;2024-02-28T03:24:00;6.70;1.00
429;DHT22;201;48.758;9.290;2024-02-28T03:26:26;6.70;1.00
429;DHT22;201;48.758;9.290;2024-02-28T03:28:51;6.70;1.00
429;DHT22;201;48.758;9.290;2024-02-28T03:31:17;6.60;1.00
429;DHT22;201;48.758;9.290;2024-02-28T03:33:42;6.60;1.00
429;DHT22;201;48.758;9.290;2024-02-28T03:36:08;6.60;1.00
429;DHT22;201;48.758;9.290;2024-02-28T03:38:33;6.60;1.00
429;DHT22;201;48.758;9.290;2024-02-28T03:40:59;6.60;1.00
429;DHT22;201;48.758;9.290;2024-02-28T03:43:24;6.60;1.00
429;DHT22;201;48.758;9.290;2024-02-28T03:45:50;6.60;1.00
429;DHT22;201;48.758;9.290;2024-02-28T03:48:15;6.60;1.00
429;DHT22;201;48.758;9.290;2024-02-28T03:50:41;6.60;1.00
429;DHT22;201;48.758;9.290;2024-02-28T03:53:06;6.60;1.00
429;DHT22;201;48.758;9.290;2024-02-28T03:55:32;6.60;1.00
429;DHT22;201;48.758;9.290;2024-02-28T03:57:58;6.60;1.00
429;DHT22;201;48.758;9.290;2024-02-28T04:00:23;6.60;1.00
429;DHT22;201;48.758;9.290;2024-02-28T04:02:51;6.60;1.00
429;DHT22;201;48.758;9.290;2024-02-28T04:05:16;6.60;1.00
429;DHT22;201;48.758;9.290;2024-02-28T04:07:42;6.70;1.00
429;DHT22;201;48.758;9.290;2024-02-28T04:10:08;6.80;1.00
429;DHT22;201;48.758;9.290;2024-02-28T04:12:36;6.70;1.00
429;DHT22;201;48.758;9.290;2024-02-28T04:15:02;6.70;1.00
429;DHT22;201;48.758;9.290;2024-02-28T04:17:28;6.70;1.00
429;DHT22;201;48.758;9.290;2024-02-28T04:19:53;6.60;1.00
429;DHT22;201;48.758;9.290;2024-02-28T04:22:19;6.70;1.00
429;DHT22;201;48.758;9.290;2024-02-28T04:24:44;6.60;1.20
429;DHT22;201;48.758;9.290;2024-02-28T04:27:10;6.60;1.30
429;DHT22;201;48.758;9.290;2024-02-28T04:29:37;6.60;1.00
429;DHT22;201;48.758;9.290;2024-02-28T04:32:03;6.60;1.00
429;DHT22;201;48.758;9.290;2024-02-28T04:34:29;6.50;1.30
429;DHT22;201;48.758;9.290;2024-02-28T04:36:54;6.50;1.70
429;DHT22;201;48.758;9.290;2024-02-28T04:39:20;6.60;2.30
429;DHT22;201;48.758;9.290;2024-02-28T04:41:45;6.50;2.40
429;DHT22;201;48.758;9.290;2024-02-28T04:44:11;6.50;3.00
429;DHT22;201;48.758;9.290;2024-02-28T04:46:37;6.50;3.00
429;DHT22;201;48.758;9.290;2024-02-28T04:49:02;6.50;3.00
429;DHT22;201;48.758;9.290;2024-02-28T04:51:28;6.40;3.20
429;DHT22;201;48.758;9.290;2024-02-28T04:53:53;6.40;3.50
429;DHT22;201;48.758;9.290;2024-02-28T04:56:19;6.30;3.40
429;DHT22;201;48.758;9.290;2024-02-28T04:58:45;6.30;4.00
429;DHT22;201;48.758;9.290;2024-02-28T05:01:10;6.30;3.90
429;DHT22;201;48.758;9.290;2024-02-28T05:03:36;6.30;3.90
429;DHT22;201;48.758;9.290;2024-02-28T05:06:01;6.20;4.00
429;DHT22;201;48.758;9.290;2024-02-28T05:08:27;6.20;4.20
429;DHT22;201;48.758;9.290;2024-02-28T05:10:53;6.20;4.20
429;DHT22;201;48.758;9.290;2024-02-28T05:13:19;6.20;4.20
429;DHT22;201;48.758;9.290;2024-02-28T05:15:45;6.20;4.30
429;DHT22;201;48.758;9.290;2024-02-28T05:18:10;6.10;4.20
429;DHT22;201;48.758;9.290;2024-02-28T05:20:36;6.20;4.40
429;DHT22;201;48.758;9.290;2024-02-28T05:23:01;6.20;4.30
429;DHT22;201;48.758;9.290;2024-02-28T05:25:27;6.10;4.60
429;DHT22;201;48.758;9.290;2024-02-28T05:27:52;6.10;4.90
429;DHT22;201;48.758;9.290;2024-02-28T05:30:18;6.20;4.80
429;DHT22;201;48.758;9.290;2024-02-28T05:32:44;6.10;4.40
429;DHT22;201;48.758;9.290;2024-02-28T05:35:10;6.20;4.50
429;DHT22;201;48.758;9.290;2024-02-28T05:37:36;6.20;4.60
429;DHT22;201;48.758;9.290;2024-02-28T05:40:02;6.10;4.30
429;DHT22;201;48.758;9.290;2024-02-28T05:42:28;6.20;4.60
429;DHT22;201;48.758;9.290;2024-02-28T05:44:54;6.20;4.60
429;DHT22;201;48.758;9.290;2024-02-28T05:47:19;6.20;4.80
429;DHT22;201;48.758;9.290;2024-02-28T05:49:45;6.20;4.50
429;DHT22;201;48.758;9.290;2024-02-28T05:52:11;6.20;4.70
429;DHT22;201;48.758;9.290;2024-02-28T05:54:36;6.20;4.30
429;DHT22;201;48.758;9.290;2024-02-28T05:57:02;6.10;4.60
429;DHT22;201;48.758;9.290;2024-02-28T05:59:27;6.10;4.80
429;DHT22;201;48.758;9.290;2024-02-28T06:01:53;6.10;4.60
429;DHT22;201;48.758;9.290;2024-02-28T06:04:18;6.20;4.70
429;DHT22;201;48.758;9.290;2024-02-28T06:06:44;6.20;4.50
429;DHT22;201;48.758;9.290;2024-02-28T06:09:10;6.20;4.70
429;DHT22;201;48.758;9.290;2024-02-28T06:11:36;6.10;4.40
429;DHT22;201;48.758;9.290;2024-02-28T06:14:01;6.20;4.50
429;DHT22;201;48.758;9.290;2024-02-28T06:16:29;6.10;4.40
429;DHT22;201;48.758;9.290;2024-02-28T06:18:54;6.10;4.30
429;DHT22;201;48.758;9.290;2024-02-28T06:21:22;6.10;4.40
429;DHT22;201;48.758;9.290;2024-02-28T06:23:48;6.10;4.70
429;DHT22;201;48.758;9.290;2024-02-28T06:26:13;6.10;4.50
429;DHT22;201;48.758;9.290;2024-02-28T06:28:43;6.10;4.70
429;DHT22;201;48.758;9.290;2024-02-28T06:31:17;6.10;4.50
429;DHT22;201;48.758;9.290;2024-02-28T06:33:46;6.10;4.40
429;DHT22;201;48.758;9.290;2024-02-28T06:36:12;6.20;4.30
429;DHT22;201;48.758;9.290;2024-02-28T06:38:37;6.10;4.10
429;DHT22;201;48.758;9.290;2024-02-28T06:41:04;6.10;4.10
429;DHT22;201;48.758;9.290;2024-02-28T06:43:32;6.10;4.20
429;DHT22;201;48.758;9.290;2024-02-28T06:45:58;6.00;4.10
429;DHT22;201;48.758;9.290;2024-02-28T06:48:23;6.10;4.20
429;DHT22;201;48.758;9.290;2024-02-28T06:50:49;6.00;4.00
429;DHT22;201;48.758;9.290;2024-02-28T06:53:14;6.00;4.20
429;DHT22;201;48.758;9.290;2024-02-28T06:55:39;6.00;3.90
429;DHT22;201;48.758;9.290;2024-02-28T06:58:05;6.10;4.30
429;DHT22;201;48.758;9.290;2024-02-28T07:00:30;6.10;3.90
429;DHT22;201;48.758;9.290;2024-02-28T07:02:56;6.10;3.90
429;DHT22;201;48.758;9.290;2024-02-28T07:05:21;6.10;4.10
429;DHT22;201;48.758;9.290;2024-02-28T07:07:47;6.20;4.20
429;DHT22;201;48.758;9.290;2024-02-28T07:10:13;6.30;3.90
429;DHT22;201;48.758;9.290;2024-02-28T07:12:39;6.30;3.70
429;DHT22;201;48.758;9.290;2024-02-28T07:15:04;6.30;3.50
429;DHT22;201;48.758;9.290;2024-02-28T07:17:31;6.40;3.70
429;DHT22;201;48.758;9.290;2024-02-28T07:19:56;6.50;3.50
429;DHT22;201;48.758;9.290;2024-02-28T07:22:22;6.70;3.00
429;DHT22;201;48.758;9.290;2024-02-28T07:24:47;6.60;2.60
429;DHT22;201;48.758;9.290;2024-02-28T07:27:13;6.60;2.70
429;DHT22;201;48.758;9.290;2024-02-28T07:29:38;6.60;2.50
429;DHT22;201;48.758;9.290;2024-02-28T07:32:04;6.60;2.00
429;DHT22;201;48.758;9.290;2024-02-28T07:34:30;6.70;1.80
429;DHT22;201;48.758;9.290;2024-02-28T07:36:55;6.70;1.80
429;DHT22;201;48.758;9.290;2024-02-28T07:39:22;6.70;1.60
429;DHT22;201;48.758;9.290;2024-02-28T07:41:49;6.90;1.60
429;DHT22;201;48.758;9.290;2024-02-28T07:44:16;6.90;1.40
429;DHT22;201;48.758;9.290;2024-02-28T07:46:41;7.00;1.00
429;DHT22;201;48.758;9.290;2024-02-28T07:49:07;7.00;1.00
429;DHT22;201;48.758;9.290;2024-02-28T07:51:33;7.00;1.10
429;DHT22;201;48.758;9.290;2024-02-28T07:53:59;6.90;1.00
429;DHT22;201;48.758;9.290;2024-02-28T07:56:24;6.80;1.00
429;DHT22;201;48.758;9.290;2024-02-28T07:58:50;6.70;1.00
429;DHT22;201;48.758;9.290;2024-02-28T08:01:15;6.80;1.20
429;DHT22;201;48.758;9.290;2024-02-28T08:03:42;6.60;1.20
429;DHT22;201;48.758;9.290;2024-02-28T08:06:07;6.50;1.60
429;DHT22;201;48.758;9.290;2024-02-28T08:08:34;6.60;1.70
429;DHT22;201;48.758;9.290;2024-02-28T08:11:00;6.60;1.80
429;DHT22;201;48.758;9.290;2024-02-28T08:13:25;6.50;1.60
429;DHT22;201;48.758;9.290;2024-02-28T08:15:54;6.40;2.00
429;DHT22;201;48.758;9.290;2024-02-28T08:18:19;6.40;2.40
429;DHT22;201;48.758;9.290;2024-02-28T08:20:45;6.50;2.40
429;DHT22;201;48.758;9.290;2024-02-28T08:23:10;6.60;2.40
429;DHT22;201;48.758;9.290;2024-02-28T08:25:36;6.60;2.00
429;DHT22;201;48.758;9.290;2024-02-28T08:28:03;6.60;2.10
429;DHT22;201;48.758;9.290;2024-02-28T08:30:28;6.70;2.00
429;DHT22;201;48.758;9.290;2024-02-28T08:32:54;6.80;1.80
429;DHT22;201;48.758;9.290;2024-02-28T08:35:20;6.80;1.30
429;DHT22;201;48.758;9.290;2024-02-28T08:37:45;6.80;1.30
429;DHT22;201;48.758;9.290;2024-02-28T08:40:11;6.80;1.50
429;DHT22;201;48.758;9.290;2024-02-28T08:42:37;6.90;1.30
429;DHT22;201;48.758;9.290;2024-02-28T08:45:03;6.90;1.20
429;DHT22;201;48.758;9.290;2024-02-28T08:47:32;6.70;1.60
429;DHT22;201;48.758;9.290;2024-02-28T08:49:57;6.70;1.50
429;DHT22;201;48.758;9.290;2024-02-28T08:52:23;6.70;1.60
429;DHT22;201;48.758;9.290;2024-02-28T08:54:48;6.70;1.50
429;DHT22;201;48.758;9.290;2024-02-28T08:57:14;6.80;1.30
429;DHT22;201;48.758;9.290;2024-02-28T08:59:40;6.80;1.00
429;DHT22;201;48.758;9.290;2024-02-28T09:02:06;6.80;1.10
429;DHT22;201;48.758;9.290;2024-02-28T09:04:33;6.90;1.00
429;DHT22;201;48.758;9.290;2024-02-28T09:06:58;6.90;1.00
429;DHT22;201;48.758;9.290;2024-02-28T09:09:27;7.10;1.00
429;DHT22;201;48.758;9.290;2024-02-28T09:11:54;7.10;1.00
429;DHT22;201;48.758;9.290;2024-02-28T09:14:19;7.10;1.00
429;DHT22;201;48.758;9.290;2024-02-28T09:16:45;7.20;1.00
429;DHT22;201;48.758;9.290;2024-02-28T09:19:10;7.20;1.00
429;DHT22;201;48.758;9.290;2024-02-28T09:21:36;7.30;1.00
429;DHT22;201;48.758;9.290;2024-02-28T09:24:01;7.20;1.00
429;DHT22;201;48.758;9.290;2024-02-28T09:26:27;7.20;1.00
429;DHT22;201;48.758;9.290;2024-02-28T09:28:52;7.30;1.00
429;DHT22;201;48.758;9.290;2024-02-28T09:31:18;7.30;1.00
429;DHT22;201;48.758;9.290;2024-02-28T09:33:43;7.40;1.00
429;DHT22;201;48.758;9.290;2024-02-28T09:36:10;7.40;1.00
429;DHT22;201;48.758;9.290;2024-02-28T09:38:37;7.40;1.00
429;DHT22;201;48.758;9.290;2024-02-28T09:41:02;7.50;1.00
429;DHT22;201;48.758;9.290;2024-02-28T09:43:30;7.40;1.00
429;DHT22;201;48.758;9.290;2024-02-28T09:46:05;7.30;1.00
429;DHT22;201;48.758;9.290;2024-02-28T09:48:32;7.30;1.00
429;DHT22;201;48.758;9.290;2024-02-28T09:50:59;7.40;1.00
429;DHT22;201;48.758;9.290;2024-02-28T09:53:25;7.50;1.00
429;DHT22;201;48.758;9.290;2024-02-28T09:55:51;7.50;1.00
429;DHT22;201;48.758;9.290;2024-02-28T09:58:19;7.50;1.00
429;DHT22;201;48.758;9.290;2024-02-28T10:00:46;7.60;1.00
429;DHT22;201;48.758;9.290;2024-02-28T10:03:15;7.60;1.00
429;DHT22;201;48.758;9.290;2024-02-28T10:05:43;7.60;1.00
429;DHT22;201;48.758;9.290;2024-02-28T10:08:10;7.70;1.00
429;DHT22;201;48.758;9.290;2024-02-28T10:10:37;7.80;1.00
429;DHT22;201;48.758;9.290;2024-02-28T10:13:03;7.80;1.00
429;DHT22;201;48.758;9.290;2024-02-28T10:15:30;7.90;1.00
429;DHT22;201;48.758;9.290;2024-02-28T10:17:56;7.80;1.00
429;DHT22;201;48.758;9.290;2024-02-28T10:20:22;8.00;1.00
429;DHT22;201;48.758;9.290;2024-02-28T10:22:47;8.20;1.00
429;DHT22;201;48.758;9.290;2024-02-28T10:25:13;8.30;1.00
429;DHT22;201;48.758;9.290;2024-02-28T10:27:40;8.40;1.00
429;DHT22;201;48.758;9.290;2024-02-28T10:30:06;8.50;1.00
429;DHT22;201;48.758;9.290;2024-02-28T10:32:33;8.60;1.00
429;DHT22;201;48.758;9.290;2024-02-28T10:35:02;8.50;1.00
429;DHT22;201;48.758;9.290;2024-02-28T10:37:29;8.50;1.00
429;DHT22;201;48.758;9.290;2024-02-28T10:39:58;8.50;1.00
429;DHT22;201;48.758;9.290;2024-02-28T10:42:26;8.30;1.00
429;DHT22;201;48.758;9.290;2024-02-28T10:44:52;8.30;1.00
429;DHT22;201;48.758;9.290;2024-02-28T10:47:19;8.40;1.00
429;DHT22;201;48.758;9.290;2024-02-28T10:49:45;8.40;1.00
429;DHT22;201;48.758;9.290;2024-02-28T10:52:11;8.50;1.00
429;DHT22;201;48.758;9.290;2024-02-28T10:54:40;8.50;1.00
429;DHT22;201;48.758;9.290;2024-02-28T10:57:08;8.60;1.00
429;DHT22;201;48.758;9.290;2024-02-28T10:59:35;8.50;1.00
429;DHT22;201;48.758;9.290;2024-02-28T11:02:02;8.60;1.00
429;DHT22;201;48.758;9.290;2024-02-28T11:04:28;8.70;1.00
429;DHT22;201;48.758;9.290;2024-02-28T11:06:55;8.70;1.00
429;DHT22;201;48.758;9.290;2024-02-28T11:09:22;8.70;1.00
429;DHT22;201;48.758;9.290;2024-02-28T11:11:49;8.70;1.00
429;DHT22;201;48.758;9.290;2024-02-28T11:14:16;8.80;1.00
429;DHT22;201;48.758;9.290;2024-02-28T11:16:42;8.90;1.00
429;DHT22;201;48.758;9.290;2024-02-28T11:19:19;8.90;1.00
429;DHT22;201;48.758;9.290;2024-02-28T11:21:54;8.90;1.00
429;DHT22;201;48.758;9.290;2024-02-28T11:24:23;8.90;1.00
429;DHT22;201;48.758;9.290;2024-02-28T11:26:49;8.70;1.00
429;DHT22;201;48.758;9.290;2024-02-28T11:29:16;8.70;1.00
429;DHT22;201;48.758;9.290;2024-02-28T11:31:41;8.50;1.00
429;DHT22;201;48.758;9.290;2024-02-28T11:34:08;8.40;1.00
429;DHT22;201;48.758;9.290;2024-02-28T11:36:33;8.20;1.00
429;DHT22;201;48.758;9.290;2024-02-28T11:38:59;7.90;1.00
429;DHT22;201;48.758;9.290;2024-02-28T11:41:26;7.90;1.00
429;DHT22;201;48.758;9.290;2024-02-28T11:43:54;8.00;1.00
429;DHT22;201;48.758;9.290;2024-02-28T11:46:20;8.00;1.00
429;DHT22;201;48.758;9.290;2024-02-28T11:48:46;7.90;1.00
429;DHT22;201;48.758;9.290;2024-02-28T11:51:11;7.80;1.00
429;DHT22;201;48.758;9.290;2024-02-28T11:53:37;7.80;1.00
429;DHT22;201;48.758;9.290;2024-02-28T11:56:02;7.70;1.00
429;DHT22;201;48.758;9.290;2024-02-28T11:58:29;7.60;1.00
429;DHT22;201;48.758;9.290;2024-02-28T12:00:54;7.70;1.00
429;DHT22;201;48.758;9.290;2024-02-28T12:03:24;7.90;1.00
429;DHT22;201;48.758;9.290;2024-02-28T12:05:51;8.10;1.00
429;DHT22;201;48.758;9.290;2024-02-28T12:08:17;8.10;1.00
429;DHT22;201;48.758;9.290;2024-02-28T12:10:44;8.10;1.00
429;DHT22;201;48.758;9.290;2024-02-28T12:13:10;8.30;1.00
429;DHT22;201;48.758;9.290;2024-02-28T12:15:39;8.40;1.00
429;DHT22;201;48.758;9.290;2024-02-28T12:18:10;8.50;1.00
429;DHT22;201;48.758;9.290;2024-02-28T12:20:36;8.50;1.00
429;DHT22;201;48.758;9.290;2024-02-28T12:23:04;8.30;1.00
429;DHT22;201;48.758;9.290;2024-02-28T12:25:29;7.90;1.00
429;DHT22;201;48.758;9.290;2024-02-28T12:27:55;7.90;1.00
429;DHT22;201;48.758;9.290;2024-02-28T12:30:20;8.00;1.00
429;DHT22;201;48.758;9.290;2024-02-28T12:32:46;8.00;1.00
429;DHT22;201;48.758;9.290;2024-02-28T12:35:11;8.20;1.00
429;DHT22;201;48.758;9.290;2024-02-28T12:37:37;8.20;1.00
429;DHT22;201;48.758;9.290;2024-02-28T12:40:04;8.10;1.00
429;DHT22;201;48.758;9.290;2024-02-28T12:42:31;7.90;1.00
429;DHT22;201;48.758;9.290;2024-02-28T12:44:57;7.80;1.00
429;DHT22;201;48.758;9.290;2024-02-28T12:47:22;7.90;1.00
429;DHT22;201;48.758;9.290;2024-02-28T12:49:48;7.90;1.00
429;DHT22;201;48.758;9.290;2024-02-28T12:52:13;8.00;1.00
429;DHT22;201;48.758;9.290;2024-02-28T12:54:39;7.90;1.00
429;DHT22;201;48.758;9.290;2024-02-28T12:57:04;8.10;1.00
429;DHT22;201;48.758;9.290;2024-02-28T12:59:31;8.10;1.00
429;DHT22;201;48.758;9.290;2024-02-28T13:01:58;8.10;1.00
429;DHT22;201;48.758;9.290;2024-02-28T13:04:23;8.10;1.00
429;DHT22;201;48.758;9.290;2024-02-28T13:06:51;8.00;1.00
429;DHT22;201;48.758;9.290;2024-02-28T13:09:18;8.00;1.00
429;DHT22;201;48.758;9.290;2024-02-28T13:11:44;8.00;1.00
429;DHT22;201;48.758;9.290;2024-02-28T13:14:10;7.70;1.00
429;DHT22;201;48.758;9.290;2024-02-28T13:16:36;7.50;1.00
429;DHT22;201;48.758;9.290;2024-02-28T13:19:01;7.30;1.00
429;DHT22;201;48.758;9.290;2024-02-28T13:21:27;7.30;1.00
429;DHT22;201;48.758;9.290;2024-02-28T13:23:53;7.20;1.00
429;DHT22;201;48.758;9.290;2024-02-28T13:26:18;7.20;1.00
429;DHT22;201;48.758;9.290;2024-02-28T13:28:46;7.10;1.00
429;DHT22;201;48.758;9.290;2024-02-28T13:31:12;7.10;1.00
429;DHT22;201;48.758;9.290;2024-02-28T13:33:38;7.20;1.00
429;DHT22;201;48.758;9.290;2024-02-28T13:36:04;7.20;1.00
429;DHT22;201;48.758;9.290;2024-02-28T13:38:30;7.20;1.00
429;DHT22;201;48.758;9.290;2024-02-28T13:40:55;7.20;1.00
429;DHT22;201;48.758;9.290;2024-02-28T13:43:21;7.20;1.00
429;DHT22;201;48.758;9.290;2024-02-28T13:45:51;7.30;1.00
429;DHT22;201;48.758;9.290;2024-02-28T13:48:21;7.30;1.00
429;DHT22;201;48.758;9.290;2024-02-28T13:50:50;7.40;1.00
429;DHT22;201;48.758;9.290;2024-02-28T13:53:15;7.30;1.00
429;DHT22;201;48.758;9.290;2024-02-28T13:55:42;7.20;1.00
429;DHT22;201;48.758;9.290;2024-02-28T13:58:09;7.40;1.00
429;DHT22;201;48.758;9.290;2024-02-28T14:00:36;7.40;1.00
429;DHT22;201;48.758;9.290;2024-02-28T14:03:02;7.40;1.00
429;DHT22;201;48.758;9.290;2024-02-28T14:05:28;7.40;1.00
429;DHT22;201;48.758;9.290;2024-02-28T14:07:54;7.20;1.00
429;DHT22;201;48.758;9.290;2024-02-28T14:10:20;7.10;1.00
429;DHT22;201;48.758;9.290;2024-02-28T14:12:47;7.20;1.00
429;DHT22;201;48.758;9.290;2024-02-28T14:15:12;7.20;1.00
429;DHT22;201;48.758;9.290;2024-02-28T14:17:38;7.20;1.00
429;DHT22;201;48.758;9.290;2024-02-28T14:20:04;7.20;1.00
429;DHT22;201;48.758;9.290;2024-02-28T14:22:32;7.30;1.00
429;DHT22;201;48.758;9.290;2024-02-28T14:24:59;7.40;1.00
429;DHT22;201;48.758;9.290;2024-02-28T14:27:24;7.60;1.00
429;DHT22;201;48.758;9.290;2024-02-28T14:29:54;7.70;1.00
429;DHT22;201;48.758;9.290;2024-02-28T14:32:20;7.50;1.00
429;DHT22;201;48.758;9.290;2024-02-28T14:34:46;7.60;1.00
429;DHT22;201;48.758;9.290;2024-02-28T14:37:11;7.60;1.00
429;DHT22;201;48.758;9.290;2024-02-28T14:39:37;7.60;1.00
429;DHT22;201;48.758;9.290;2024-02-28T14:42:03;7.70;1.00
429;DHT22;201;48.758;9.290;2024-02-28T14:44:28;7.70;1.00
429;DHT22;201;48.758;9.290;2024-02-28T14:46:54;7.70;1.00
429;DHT22;201;48.758;9.290;2024-02-28T14:49:19;7.80;1.00
429;DHT22;201;48.758;9.290;2024-02-28T14:51:45;7.80;1.00
429;DHT22;201;48.758;9.290;2024-02-28T14:54:15;7.90;1.00
429;DHT22;201;48.758;9.290;2024-02-28T14:56:40;7.80;1.00
429;DHT22;201;48.758;9.290;2024-02-28T14:59:06;7.90;1.00
429;DHT22;201;48.758;9.290;2024-02-28T15:01:32;7.80;1.00
429;DHT22;201;48.758;9.290;2024-02-28T15:03:57;7.60;1.00
429;DHT22;201;48.758;9.290;2024-02-28T15:06:23;7.70;1.00
429;DHT22;201;48.758;9.290;2024-02-28T15:08:48;7.60;1.00
429;DHT22;201;48.758;9.290;2024-02-28T15:11:15;7.60;1.00
429;DHT22;201;48.758;9.290;2024-02-28T15:13:40;7.60;1.00
429;DHT22;201;48.758;9.290;2024-02-28T15:16:06;7.80;1.00
429;DHT22;201;48.758;9.290;2024-02-28T15:18:32;7.90;1.00
429;DHT22;201;48.758;9.290;2024-02-28T15:20:58;7.90;1.00
429;DHT22;201;48.758;9.290;2024-02-28T15:23:23;7.90;1.00
429;DHT22;201;48.758;9.290;2024-02-28T15:25:49;8.00;1.00
429;DHT22;201;48.758;9.290;2024-02-28T15:28:19;8.00;1.00
429;DHT22;201;48.758;9.290;2024-02-28T15:30:45;8.00;1.00
429;DHT22;201;48.758;9.290;2024-02-28T15:33:12;8.00;1.00
429;DHT22;201;48.758;9.290;2024-02-28T15:35:38;8.00;1.00
429;DHT22;201;48.758;9.290;2024-02-28T15:38:04;8.00;1.00
429;DHT22;201;48.758;9.290;2024-02-28T15:40:29;7.90;1.00
429;DHT22;201;48.758;9.290;2024-02-28T15:42:55;7.90;1.00
429;DHT22;201;48.758;9.290;2024-02-28T15:45:20;7.90;1.00
429;DHT22;201;48.758;9.290;2024-02-28T15:47:47;7.90;1.00
429;DHT22;201;48.758;9.290;2024-02-28T15:50:13;7.70;1.00
429;DHT22;201;48.758;9.290;2024-02-28T15:52:38;7.40;1.00
429;DHT22;201;48.758;9.290;2024-02-28T15:55:04;7.20;1.00
429;DHT22;201;48.758;9.290;2024-02-28T15:57:29;7.10;1.00
429;DHT22;201;48.758;9.290;2024-02-28T15:59:55;7.20;1.00
429;DHT22;201;48.758;9.290;2024-02-28T16:02:20;7.30;1.00
429;DHT22;201;48.758;9.290;2024-02-28T16:04:46;7.20;1.00
429;DHT22;201;48.758;9.290;2024-02-28T16:07:11;7.30;1.00
429;DHT22;201;48.758;9.290;2024-02-28T16:09:37;7.30;1.00
429;DHT22;201;48.758;9.290;2024-02-28T16:12:07;7.30;1.00
429;DHT22;201;48.758;9.290;2024-02-28T16:14:33;7.40;1.00
429;DHT22;201;48.758;9.290;2024-02-28T16:16:58;7.50;1.00
429;DHT22;201;48.758;9.290;2024-02-28T16:19:24;7.60;1.00
429;DHT22;201;48.758;9.290;2024-02-28T16:21:49;7.50;1.00
429;DHT22;201;48.758;9.290;2024-02-28T16:24:17;7.30;1.00
429;DHT22;201;48.758;9.290;2024-02-28T16:26:43;7.10;1.00
429;DHT22;201;48.758;9.290;2024-02-28T16:29:08;7.00;1.00
429;DHT22;201;48.758;9.290;2024-02-28T16:31:34;6.90;1.00
429;DHT22;201;48.758;9.290;2024-02-28T16:34:00;6.80;1.00
429;DHT22;201;48.758;9.290;2024-02-28T16:36:26;6.70;1.00
429;DHT22;201;48.758;9.290;2024-02-28T16:38:52;6.70;1.00
429;DHT22;201;48.758;9.290;2024-02-28T16:41:20;6.70;1.00
429;DHT22;201;48.758;9.290;2024-02-28T16:43:45;6.80;1.00
429;DHT22;201;48.758;9.290;2024-02-28T16:46:11;6.70;1.00
429;DHT22;201;48.758;9.290;2024-02-28T16:48:38;6.70;1.00
429;DHT22;201;48.758;9.290;2024-02-28T16:51:04;6.80;1.00
429;DHT22;201;48.758;9.290;2024-02-28T16:53:30;6.80;1.00
429;DHT22;201;48.758;9.290;2024-02-28T16:55:57;6.70;1.00
429;DHT22;201;48.758;9.290;2024-02-28T16:58:25;6.80;1.00
429;DHT22;201;48.758;9.290;2024-02-28T17:00:50;6.80;1.00